• Join FlightAware (Why Join?)
  • Login
  • US Flag 
04:08PM EDT


 

Airport Tracker/Info


-or-


 

Live Flight TrackerFlight Track Log ✈ SKW5510 ✈ 24-Apr-2013 ✈ KTUL - KORD

Flight Track Log - Related Links

Times and Time Zones

All times are in EDT time to prevent confusion due to time zone crossing. See the SKW5510 flight status page for this flight to view local times or setup timezone preferences in your user account.

Time Position Orientation Groundspeed Altitude Reporting Facility
EDT Latitude Longitude Course Direction KTS MPH feet Rate Location/Type
07:03PM 36.1953 -95.9125 63° Northeast 152 175 1,500  Level Kansas City Center
07:03PM 36.1964 -95.9253 276° West 158 182 2,100 1,620 Climbing Kansas City Center
07:04PM 36.2553 -95.9514 340° North 247 284 3,700 1,560 Climbing Kansas City Center
07:05PM 36.2706 -95.9508 North 233 268 4,100 2,880 Climbing Kansas City Center
07:06PM 36.3153 -95.8850 50° Northeast 247 284 7,500 2,640 Climbing Kansas City Center
07:07PM 36.3547 -95.7992 60° Northeast 267 307 9,600 1,740 Climbing Kansas City Center
07:08PM 36.3983 -95.6972 62° Northeast 326 375 11,200 1,500 Climbing Kansas City Center
07:09PM 36.4944 -95.2390 63° Northeast  Level FlightAware Approximate
07:09PM 36.4475 -95.5800 62° Northeast 369 425 12,700  Level Kansas City Center
07:10PM 36.5022 -95.4483 63° Northeast 406 467 14,300 1,440 Climbing Kansas City Center
07:11PM 36.5664 -95.2950 62° Northeast 439 505 15,800 1,440 Climbing Kansas City Center
07:12PM 36.6331 -95.1342 63° Northeast 466 536 17,300 1,200 Climbing Kansas City Center
07:13PM 36.6953 -94.9828 63° Northeast 479 551 18,400 1,200 Climbing Kansas City Center
07:14PM 36.7586 -94.8267 63° Northeast 492 566 19,800 1,260 Climbing Kansas City Center
07:15PM 36.8228 -94.6675 63° Northeast 502 578 21,100 1,020 Climbing Kansas City Center
07:16PM 36.8900 -94.5039 63° Northeast 519 597 22,000 840 Climbing Kansas City Center
07:17PM 36.9583 -94.3356 63° Northeast 537 618 22,900 900 Climbing Kansas City Center
07:18PM 37.0261 -94.1631 64° Northeast 548 631 23,900 1,020 Climbing Kansas City Center
07:19PM 37.1106 -93.9553 63° Northeast 555 639 25,100 960 Climbing Kansas City Center
07:20PM 37.1756 -93.7925 63° Northeast 559 643 26,000 720 Climbing Kansas City Center
07:21PM 37.2456 -93.6144 64° Northeast 566 651 26,700 660 Climbing Kansas City Center
07:22PM 37.3169 -93.4339 64° Northeast 573 659 27,400 840 Climbing Kansas City Center
07:23PM 37.4378 -93.2614 49° Northeast 549 632 28,500 780 Climbing Kansas City Center
07:24PM 37.5581 -93.1486 37° Northeast 535 616 29,000 240 Climbing Kansas City Center
07:25PM 37.6808 -93.0383 35° Northeast 537 618 29,000 180 Level Kansas City Center
07:26PM 37.8011 -92.9236 37° Northeast 537 618 29,400 480 Climbing Kansas City Center
07:27PM 37.9261 -92.8058 37° Northeast 552 635 30,100 660 Climbing Kansas City Center
07:28PM 38.0439 -92.6944 37° Northeast 550 633 30,800 660 Climbing Kansas City Center
07:30PM 38.1675 -92.5783 36° Northeast 551 634 31,500 720 Climbing Kansas City Center
07:31PM 38.3022 -92.4506 37° Northeast 553 636 32,300 720 Climbing Kansas City Center
07:32PM 38.4264 -92.3328 37° Northeast 551 634 33,100 720 Climbing Kansas City Center
07:33PM 38.5492 -92.2133 37° Northeast 550 633 33,900 840 Climbing Kansas City Center
07:34PM 38.6956 -92.0744 37° Northeast 545 627 34,900 840 Climbing Kansas City Center
07:35PM 38.8164 -91.9581 37° Northeast 541 623 35,700 720 Climbing Kansas City Center
07:36PM 38.9358 -91.8414 37° Northeast 539 620 36,500 600 Climbing Kansas City Center
07:37PM 39.0561 -91.7250 37° Northeast 537 618 37,000 240 Climbing Kansas City Center
07:38PM 39.1867 -91.5972 37° Northeast 544 626 37,000  Level Kansas City Center
07:39PM 39.3117 -91.4753 37° Northeast 554 638 37,000 -180 Level Kansas City Center
07:40PM 39.4344 -91.3544 37° Northeast 556 640 36,700 -420 Descending Kansas City Center
07:41PM 39.5533 -91.2367 37° Northeast 547 629 36,200 -480 Descending Kansas City Center
07:42PM 39.6700 -91.1197 38° Northeast 537 618 35,700 -600 Descending Kansas City Center
07:43PM 39.7892 -91.0000 38° Northeast 527 606 35,100 -660 Descending Kansas City Center
07:44PM 39.9069 -90.8825 37° Northeast 520 598 34,400 -660 Descending Kansas City Center
07:45PM 40.0208 -90.7675 38° Northeast 518 596 33,800 -600 Descending Kansas City Center
07:46PM 40.1269 -90.6597 38° Northeast 517 595 33,300 -480 Descending Chicago Center
07:47PM 40.2481 -90.5364 38° Northeast 519 597 33,000 -180 Descending Chicago Center
07:48PM 40.3639 -90.4186 38° Northeast 524 603 33,000 -180 Level Chicago Center
07:49PM 40.4792 -90.3011 38° Northeast 524 603 32,700 -960 Descending Chicago Center
07:50PM 40.5919 -90.1844 38° Northeast 523 602 31,100 -1,560 Descending Chicago Center
07:51PM 40.7061 -90.0667 38° Northeast 522 601 29,500 -1,740 Descending Chicago Center
07:52PM 40.8400 -89.9275 38° Northeast 511 588 27,500 -1,740 Descending Chicago Center
07:53PM 40.9464 -89.8139 39° Northeast 497 572 26,000 -1,500 Descending Chicago Center
07:54PM 41.0422 -89.7144 38° Northeast 487 560 24,500 -1,020 Descending Chicago Center
07:55PM 41.1608 -89.5797 41° Northeast 467 537 24,000 -540 Descending Chicago Center
07:56PM 41.2269 -89.4250 60° Northeast 478 550 23,500 -1,200 Descending Chicago Center
07:57PM 41.2897 -89.2700 62° Northeast 476 548 21,600 -2,520 Descending Chicago Center
07:58PM 41.3517 -89.1133 62° Northeast 452 520 18,300 -3,000 Descending Chicago Center
07:59PM 41.4067 -88.9769 62° Northeast 427 491 15,500 -2,760 Descending Chicago Center
08:01PM 41.4681 -88.8206 62° Northeast 400 460 12,200 -2,040 Descending Chicago Center
08:02PM 41.5156 -88.6989 62° Northeast 376 433 11,000 -600 Descending Chicago Center
08:03PM 41.5617 -88.5811 62° Northeast 363 418 11,000  Level Chicago Center
08:04PM 41.6106 -88.4647 61° Northeast 363 418 11,000  Level Chicago Center
08:05PM 41.6833 -88.3394 52° Northeast 358 412 11,000 -420 Level Chicago Center
08:06PM 41.7378 -88.2456 52° Northeast 318 366 10,200 -1,260 Descending Chicago Center
08:07PM 41.7886 -88.1592 52° Northeast 297 342 8,500 -1,620 Descending Chicago Center
08:08PM 41.8369 -88.0753 52° Northeast 287 330 7,000 -780 Descending Chicago Center
08:09PM 41.8808 -87.9939 54° Northeast 274 315 7,000  Level Chicago Center
08:10PM 41.8833 -87.8833 88° East 270 311 7,000 -60 Level Chicago TRACON
08:11PM 41.8833 -87.8000 90° East 237 273 6,900 -600 Descending Chicago TRACON
08:12PM 41.8833 -87.7167 90° East 231 266 5,900 -1,080 Descending Chicago TRACON
08:13PM 41.9333 -87.6833 26° Northeast 220 253 4,900 -1,140 Descending Chicago TRACON